Time;durP1;ratioP1;P1;durP2;ratioP2;P2;SDS_P1;SDS_P2;PMS_P1;PMS_P2;Temp;Humidity;BMP_temperature;BMP_pressure;BME280_temperature;BME280_humidity;BME280_pressure;Samples;Min_cycle;Max_cycle;Signal;HPM_P1;HPM_P2
2023/08/22 00:00:58;;;;;;;3.30;1.92;;;21.30;99.90;;;;;;4998265;28;20422;-90
2023/08/22 00:03:24;;;;;;;3.03;1.77;;;21.30;99.90;;;;;;4999075;28;20126;-91
2023/08/22 00:05:49;;;;;;;4.57;1.83;;;21.30;99.90;;;;;;4982302;28;20050;-90
2023/08/22 00:08:15;;;;;;;3.38;2.03;;;21.30;99.90;;;;;;4998604;28;20033;-90
2023/08/22 00:10:41;;;;;;;4.35;1.80;;;21.30;99.90;;;;;;4981624;28;20085;-91
2023/08/22 00:13:10;;;;;;;3.53;2.10;;;21.30;99.90;;;;;;4996537;28;20080;-91
2023/08/22 00:15:35;;;;;;;3.42;2.00;;;21.20;99.90;;;;;;4980671;28;20030;-92
2023/08/22 00:18:02;;;;;;;3.70;2.00;;;21.20;99.90;;;;;;5000623;28;20367;-91
2023/08/22 00:20:28;;;;;;;4.88;2.03;;;21.20;99.90;;;;;;4984518;28;20018;-90
2023/08/22 00:22:53;;;;;;;2.92;2.00;;;21.20;99.90;;;;;;5003394;28;20031;-90
2023/08/22 00:25:28;;;;;;;3.97;1.95;;;21.30;99.90;;;;;;5011961;28;20023;-91
2023/08/22 00:27:53;;;;;;;4.97;2.05;;;21.20;99.90;;;;;;5029181;28;20022;-91
2023/08/22 00:30:19;;;;;;;4.68;1.88;;;21.30;99.90;;;;;;5019348;28;20058;-92
2023/08/22 00:32:46;;;;;;;4.80;1.83;;;21.20;99.90;;;;;;5031185;28;20028;-91
2023/08/22 00:35:11;;;;;;;2.35;1.73;;;21.20;99.90;;;;;;4996409;28;20042;-92
2023/08/22 00:37:37;;;;;;;2.53;1.80;;;21.20;99.90;;;;;;5001147;28;20038;-92
2023/08/22 00:40:07;;;;;;;2.78;1.85;;;21.20;99.90;;;;;;4996006;28;20489;-90
2023/08/22 00:42:32;;;;;;;3.00;1.80;;;21.20;99.90;;;;;;4986922;28;20030;-92
2023/08/22 00:44:58;;;;;;;3.35;1.67;;;21.20;99.90;;;;;;4992586;28;20082;-92
2023/08/22 00:47:24;;;;;;;3.70;2.00;;;21.20;99.90;;;;;;4977783;28;20031;-91
2023/08/22 00:49:51;;;;;;;4.18;2.00;;;21.20;99.90;;;;;;4997005;28;20034;-91
2023/08/22 00:52:17;;;;;;;3.10;1.92;;;21.20;99.90;;;;;;5015720;28;20163;-91
2023/08/22 00:54:44;;;;;;;4.68;2.20;;;21.10;99.90;;;;;;5016244;28;20363;-88
2023/08/22 00:57:10;;;;;;;5.03;2.08;;;21.10;99.90;;;;;;5015482;28;20465;-91
2023/08/22 00:59:37;;;;;;;3.53;2.00;;;21.10;99.90;;;;;;4999043;28;20054;-91
2023/08/22 01:02:03;;;;;;;2.50;1.70;;;21.10;99.90;;;;;;4999755;28;20046;-91
2023/08/22 01:04:29;;;;;;;3.83;1.90;;;21.10;99.90;;;;;;4992843;28;20030;-91
2023/08/22 01:06:55;;;;;;;3.03;1.80;;;21.00;99.90;;;;;;4980488;28;20033;-91
2023/08/22 01:09:36;;;;;;;3.33;1.70;;;21.00;99.90;;;;;;4992955;28;20027;-91
2023/08/22 01:12:29;;;;;;;3.38;1.80;;;21.00;99.90;;;;;;4993090;28;20356;-92
2023/08/22 01:15:20;;;;;;;2.92;1.85;;;21.00;99.90;;;;;;4981023;28;20038;-89
2023/08/22 01:17:49;;;;;;;2.85;1.90;;;21.00;99.90;;;;;;5014939;28;20065;-90
2023/08/22 01:20:16;;;;;;;2.33;1.77;;;20.90;99.90;;;;;;5015877;28;20462;-91
2023/08/22 01:22:45;;;;;;;2.13;1.60;;;21.00;99.90;;;;;;5015265;28;20026;-90
2023/08/22 01:25:11;;;;;;;3.67;2.03;;;21.00;99.90;;;;;;5016028;28;20026;-90
2023/08/22 01:27:52;;;;;;;3.47;1.90;;;20.90;99.90;;;;;;4996113;28;20021;-91
2023/08/22 01:30:30;;;;;;;3.83;2.20;;;20.90;99.90;;;;;;4995477;28;20022;-90
2023/08/22 01:33:03;;;;;;;2.60;2.20;;;20.90;99.90;;;;;;4992107;28;20121;-91
2023/08/22 01:35:31;;;;;;;4.40;2.25;;;20.90;99.90;;;;;;4995123;28;20033;-91
2023/08/22 01:37:58;;;;;;;4.32;2.17;;;20.90;99.90;;;;;;4995033;28;20466;-91
2023/08/22 01:40:24;;;;;;;4.10;2.10;;;20.90;99.90;;;;;;4995277;28;20462;-90
2023/08/22 01:42:50;;;;;;;3.55;2.08;;;20.90;99.90;;;;;;4995076;28;20023;-87
2023/08/22 01:45:16;;;;;;;4.95;2.35;;;20.90;99.90;;;;;;4978811;28;20034;-90
2023/08/22 01:47:41;;;;;;;4.25;2.28;;;20.80;99.90;;;;;;5002039;28;20075;-92
2023/08/22 01:50:08;;;;;;;3.28;2.13;;;20.80;99.90;;;;;;5014359;28;20451;-90
2023/08/22 01:52:33;;;;;;;2.40;2.20;;;20.80;99.90;;;;;;4998135;28;20033;-90
2023/08/22 01:54:59;;;;;;;2.20;1.85;;;20.80;99.90;;;;;;5016383;28;20417;-91
2023/08/22 01:57:25;;;;;;;4.10;2.28;;;20.80;99.90;;;;;;5018773;28;20056;-92
2023/08/22 01:59:53;;;;;;;4.25;2.40;;;20.80;99.90;;;;;;4991990;28;20022;-91
2023/08/22 02:02:19;;;;;;;4.95;2.60;;;20.80;99.90;;;;;;4992188;28;20082;-91
2023/08/22 02:04:45;;;;;;;4.72;2.28;;;20.80;99.90;;;;;;4976158;28;20459;-90
2023/08/22 02:07:10;;;;;;;4.97;2.60;;;20.80;99.90;;;;;;4975593;28;20035;-89
2023/08/22 02:09:36;;;;;;;4.07;2.13;;;20.80;99.90;;;;;;4984564;28;20034;-89
2023/08/22 02:12:02;;;;;;;4.75;2.20;;;20.80;99.90;;;;;;4995345;28;20022;-91
2023/08/22 02:14:28;;;;;;;3.50;2.38;;;20.80;99.90;;;;;;4979354;28;20026;-89
2023/08/22 02:16:55;;;;;;;3.33;1.83;;;20.80;99.90;;;;;;4980373;28;20062;-88
2023/08/22 02:19:21;;;;;;;5.10;2.38;;;20.80;99.90;;;;;;5005107;28;20037;-91
2023/08/22 02:21:48;;;;;;;2.97;2.28;;;20.80;99.90;;;;;;5043982;28;20050;-91
2023/08/22 02:24:13;;;;;;;5.50;2.08;;;20.70;99.90;;;;;;5033089;28;20042;-90
2023/08/22 02:26:42;;;;;;;5.88;2.40;;;20.80;99.90;;;;;;5019800;28;20045;-91
2023/08/22 02:29:09;;;;;;;5.72;3.00;;;20.70;99.90;;;;;;4984487;28;20030;-91
2023/08/22 02:31:34;;;;;;;5.25;2.60;;;20.70;99.90;;;;;;4990859;28;20099;-90
2023/08/22 02:34:00;;;;;;;3.45;2.25;;;20.70;99.90;;;;;;4984245;28;20031;-90
2023/08/22 02:36:26;;;;;;;3.38;2.60;;;20.70;99.90;;;;;;4984128;28;20046;-89
2023/08/22 02:38:51;;;;;;;3.20;2.67;;;20.70;99.90;;;;;;4998311;28;20096;-90
2023/08/22 02:41:17;;;;;;;4.25;2.50;;;20.70;99.90;;;;;;5004599;28;20027;-90
2023/08/22 02:43:43;;;;;;;4.50;2.70;;;20.60;99.90;;;;;;5004323;28;20039;-90
2023/08/22 02:46:08;;;;;;;4.03;2.67;;;20.60;99.90;;;;;;4977574;28;20030;-90
2023/08/22 02:48:34;;;;;;;5.32;2.60;;;20.60;99.90;;;;;;4992958;28;20030;-91
2023/08/22 02:51:00;;;;;;;3.65;2.55;;;20.60;99.90;;;;;;4975237;28;20039;-90
2023/08/22 02:53:25;;;;;;;4.05;2.58;;;20.60;99.90;;;;;;4992966;28;20083;-91
2023/08/22 02:55:51;;;;;;;4.60;2.47;;;20.60;99.90;;;;;;4977834;28;20478;-91
2023/08/22 02:58:17;;;;;;;5.25;3.00;;;20.50;99.90;;;;;;4995702;28;20034;-90
2023/08/22 03:00:46;;;;;;;4.57;2.65;;;20.60;99.90;;;;;;5014321;28;20462;-90
2023/08/22 03:03:13;;;;;;;3.75;2.65;;;20.60;99.90;;;;;;5013817;28;20052;-90
2023/08/22 03:05:39;;;;;;;4.35;2.72;;;20.50;99.90;;;;;;5018179;28;20444;-89
2023/08/22 03:08:04;;;;;;;3.95;3.00;;;20.50;99.90;;;;;;5018282;28;20029;-90
2023/08/22 03:10:30;;;;;;;5.68;2.85;;;20.50;99.90;;;;;;5001968;28;20045;-90
2023/08/22 03:12:56;;;;;;;4.47;2.80;;;20.50;99.90;;;;;;5002025;28;20033;-92
2023/08/22 03:15:21;;;;;;;5.47;2.92;;;20.50;99.90;;;;;;5001724;28;20036;-91
2023/08/22 03:17:47;;;;;;;4.53;2.40;;;20.50;99.90;;;;;;4993953;28;20034;-91
2023/08/22 03:20:13;;;;;;;4.78;2.60;;;20.50;99.90;;;;;;4980964;28;20145;-91
2023/08/22 03:22:40;;;;;;;3.78;2.80;;;20.40;99.90;;;;;;4995341;28;20098;-90
2023/08/22 03:25:06;;;;;;;6.55;2.70;;;20.40;99.90;;;;;;4995867;28;20113;-90
2023/08/22 03:27:32;;;;;;;5.55;3.00;;;20.40;99.90;;;;;;5002020;28;20053;-90
2023/08/22 03:29:57;;;;;;;4.32;2.85;;;20.30;99.90;;;;;;5018021;28;20034;-91
2023/08/22 03:32:23;;;;;;;4.13;2.70;;;20.30;99.90;;;;;;5000251;28;20041;-91
2023/08/22 03:34:49;;;;;;;3.92;2.60;;;20.30;99.90;;;;;;4998446;28;20142;-90
2023/08/22 03:37:14;;;;;;;4.45;2.70;;;20.30;99.90;;;;;;4997792;28;20026;-90
2023/08/22 03:39:40;;;;;;;4.88;2.80;;;20.30;99.90;;;;;;5009238;28;20213;-91
2023/08/22 03:42:06;;;;;;;5.45;3.13;;;20.20;99.90;;;;;;5001350;28;20026;-90
2023/08/22 03:44:31;;;;;;;4.57;3.15;;;20.20;99.90;;;;;;5001166;28;20512;-91
2023/08/22 03:46:57;;;;;;;5.75;2.92;;;20.20;99.90;;;;;;5000765;28;20098;-91
2023/08/22 03:49:23;;;;;;;4.22;3.05;;;20.10;99.90;;;;;;4982946;28;20066;-90
2023/08/22 03:51:48;;;;;;;3.90;2.78;;;20.10;99.90;;;;;;4988185;28;20038;-91
2023/08/22 03:54:14;;;;;;;4.72;3.45;;;20.10;99.90;;;;;;4991396;28;20079;-91
2023/08/22 03:56:39;;;;;;;3.83;2.90;;;20.10;99.90;;;;;;5017582;28;20076;-91
2023/08/22 03:59:05;;;;;;;3.92;3.30;;;20.00;99.90;;;;;;5000428;28;20065;-89
2023/08/22 04:01:31;;;;;;;6.05;3.42;;;20.00;99.90;;;;;;5016563;28;20080;-90
2023/08/22 04:03:56;;;;;;;4.35;3.03;;;20.00;99.90;;;;;;5001565;28;20053;-91
2023/08/22 04:06:22;;;;;;;5.40;3.40;;;20.00;99.90;;;;;;5016720;28;20036;-90
2023/08/22 04:08:48;;;;;;;4.10;3.17;;;19.90;99.90;;;;;;5016998;28;20449;-91
2023/08/22 04:11:13;;;;;;;5.25;3.35;;;19.90;99.90;;;;;;5018006;28;20431;-91
2023/08/22 04:13:46;;;;;;;3.35;3.00;;;19.90;99.90;;;;;;5017834;28;20061;-90
2023/08/22 04:16:12;;;;;;;3.40;2.65;;;19.90;99.90;;;;;;5017209;28;20125;-90
2023/08/22 04:18:38;;;;;;;3.38;2.65;;;19.90;99.90;;;;;;5004424;28;20065;-91
2023/08/22 04:21:03;;;;;;;5.78;2.63;;;19.80;99.90;;;;;;5014704;28;20025;-91
2023/08/22 04:23:29;;;;;;;4.22;3.00;;;19.80;99.90;;;;;;5036864;28;20041;-90
2023/08/22 04:25:55;;;;;;;3.25;2.65;;;19.80;99.90;;;;;;5019560;28;20098;-90
2023/08/22 04:28:20;;;;;;;5.00;2.70;;;19.80;99.90;;;;;;5031806;28;20040;-89
2023/08/22 04:30:46;;;;;;;4.30;3.13;;;19.70;99.90;;;;;;5013860;28;20037;-92
2023/08/22 04:33:17;;;;;;;3.00;2.50;;;19.70;99.90;;;;;;4999058;28;20034;-92
2023/08/22 04:35:46;;;;;;;4.10;2.65;;;19.70;99.90;;;;;;4977723;28;20038;-91
2023/08/22 04:38:12;;;;;;;2.88;2.50;;;19.70;99.90;;;;;;5003114;28;20474;-92
2023/08/22 04:40:38;;;;;;;3.63;2.60;;;19.70;99.90;;;;;;5009613;28;20037;-93
2023/08/22 04:43:04;;;;;;;3.67;2.53;;;19.70;99.90;;;;;;5000046;28;20026;-91
2023/08/22 04:45:30;;;;;;;3.55;2.90;;;19.60;99.90;;;;;;4992808;28;20332;-92
2023/08/22 04:47:55;;;;;;;5.10;2.90;;;19.60;99.90;;;;;;4995486;28;20463;-91
2023/08/22 04:50:21;;;;;;;4.43;3.13;;;19.60;99.90;;;;;;4975193;28;20043;-82
2023/08/22 04:52:47;;;;;;;5.07;3.00;;;19.60;99.90;;;;;;4991531;28;20046;-82
2023/08/22 04:55:12;;;;;;;4.78;3.03;;;19.60;99.90;;;;;;4976339;28;20035;-82
2023/08/22 04:57:38;;;;;;;3.92;2.70;;;19.60;99.90;;;;;;4991411;28;20031;-82
2023/08/22 05:00:04;;;;;;;3.50;2.55;;;19.60;99.90;;;;;;4975081;28;20038;-82
2023/08/22 05:02:30;;;;;;;4.72;3.13;;;19.60;99.90;;;;;;4990850;28;20067;-81
2023/08/22 05:04:55;;;;;;;3.70;2.92;;;19.60;99.90;;;;;;4974586;28;20497;-82
2023/08/22 05:07:21;;;;;;;5.93;3.60;;;19.60;99.90;;;;;;4974773;28;20117;-82
2023/08/22 05:09:47;;;;;;;3.95;3.17;;;19.60;99.90;;;;;;4991380;28;20030;-82
2023/08/22 05:12:13;;;;;;;5.57;3.78;;;19.60;99.90;;;;;;4991205;28;20033;-82
2023/08/22 05:14:39;;;;;;;5.60;3.78;;;19.50;99.90;;;;;;4974875;28;20031;-82
2023/08/22 05:17:05;;;;;;;5.95;3.60;;;19.50;99.90;;;;;;4991031;28;20089;-81
2023/08/22 05:19:30;;;;;;;4.90;3.55;;;19.50;99.90;;;;;;4991189;28;20031;-82
2023/08/22 05:21:56;;;;;;;7.05;3.55;;;19.50;99.90;;;;;;4990959;28;20118;-82
2023/08/22 05:24:22;;;;;;;4.85;3.25;;;19.50;99.90;;;;;;4974535;28;20039;-81
2023/08/22 05:26:47;;;;;;;5.22;3.28;;;19.50;99.90;;;;;;4990860;28;20105;-82
2023/08/22 05:29:14;;;;;;;3.40;2.92;;;19.60;99.90;;;;;;4974534;28;20121;-81
2023/08/22 05:31:40;;;;;;;6.18;3.00;;;19.60;99.90;;;;;;4990998;28;20027;-82
2023/08/22 05:34:05;;;;;;;4.47;3.10;;;19.60;99.90;;;;;;4990727;28;20042;-82
2023/08/22 05:36:31;;;;;;;4.10;2.83;;;19.60;99.90;;;;;;4975802;28;20089;-82
2023/08/22 05:38:57;;;;;;;4.05;2.80;;;19.60;99.90;;;;;;4974590;28;20101;-82
2023/08/22 05:41:23;;;;;;;5.22;3.60;;;19.70;99.90;;;;;;4974167;28;20522;-82
2023/08/22 05:43:48;;;;;;;5.57;3.72;;;19.70;99.90;;;;;;4974312;28;20050;-82
2023/08/22 05:46:14;;;;;;;7.43;4.28;;;19.80;99.90;;;;;;4990371;28;20031;-81
2023/08/22 05:48:39;;;;;;;7.18;5.28;;;19.80;99.90;;;;;;4975438;28;20074;-82
2023/08/22 05:51:05;;;;;;;9.30;5.45;;;19.80;99.90;;;;;;4990290;28;20057;-81
2023/08/22 05:53:31;;;;;;;9.52;6.45;;;19.90;99.90;;;;;;4990169;28;20097;-81
2023/08/22 05:55:57;;;;;;;7.85;6.18;;;20.00;99.90;;;;;;4990489;28;20534;-81
2023/08/22 05:58:23;;;;;;;6.85;5.90;;;20.00;99.90;;;;;;4990168;28;20037;-82
2023/08/22 06:00:49;;;;;;;7.88;5.97;;;20.00;99.90;;;;;;4990296;28;20387;-82
2023/08/22 06:03:14;;;;;;;9.07;6.15;;;20.10;99.90;;;;;;4989890;28;20079;-82
2023/08/22 06:05:40;;;;;;;7.05;4.97;;;20.10;99.90;;;;;;4975404;28;20035;-82
2023/08/22 06:08:06;;;;;;;6.93;5.60;;;20.20;99.90;;;;;;4973858;28;20062;-82
2023/08/22 06:10:32;;;;;;;6.72;5.50;;;20.30;99.90;;;;;;4990129;28;20467;-82
2023/08/22 06:12:57;;;;;;;8.48;5.38;;;20.30;99.90;;;;;;4990199;28;20062;-82
2023/08/22 06:15:23;;;;;;;7.72;6.30;;;20.40;99.90;;;;;;4990425;28;20035;-81
2023/08/22 06:17:48;;;;;;;7.90;6.07;;;20.50;99.90;;;;;;4985628;28;20034;-82
2023/08/22 06:20:15;;;;;;;9.65;6.47;;;20.50;99.90;;;;;;5014840;28;20015;-82
2023/08/22 06:22:40;;;;;;;10.30;6.45;;;20.60;99.90;;;;;;5014448;28;20099;-81
2023/08/22 06:25:07;;;;;;;8.27;6.97;;;20.60;99.90;;;;;;5014884;28;20015;-81
2023/08/22 06:27:32;;;;;;;11.27;6.85;;;20.60;99.90;;;;;;5014376;28;20094;-81
2023/08/22 06:29:58;;;;;;;12.23;6.43;;;20.70;99.90;;;;;;5002571;28;20039;-82
2023/08/22 06:32:23;;;;;;;10.93;7.05;;;20.80;99.90;;;;;;4973992;28;20086;-81
2023/08/22 06:34:49;;;;;;;8.45;6.45;;;20.80;99.90;;;;;;4988464;28;20027;-83
2023/08/22 06:37:15;;;;;;;6.85;5.82;;;20.80;99.90;;;;;;4972741;28;20386;-82
2023/08/22 06:39:40;;;;;;;8.13;5.68;;;20.90;99.90;;;;;;4989004;28;20027;-82
2023/08/22 06:42:06;;;;;;;7.97;6.35;;;21.00;99.90;;;;;;4973453;28;20050;-82
2023/08/22 06:44:32;;;;;;;9.50;5.75;;;21.10;99.90;;;;;;4973266;28;20518;-82
2023/08/22 06:46:58;;;;;;;6.15;4.93;;;21.10;99.90;;;;;;4973510;28;20161;-82
2023/08/22 06:49:23;;;;;;;7.75;5.13;;;21.20;99.90;;;;;;4989781;28;20042;-83
2023/08/22 06:51:49;;;;;;;7.13;4.68;;;21.30;99.90;;;;;;4989717;28;20038;-82
2023/08/22 06:54:14;;;;;;;6.93;4.70;;;21.40;99.90;;;;;;4989332;28;20510;-83
2023/08/22 06:56:40;;;;;;;6.70;4.38;;;21.40;99.90;;;;;;4973217;28;20042;-82
2023/08/22 06:59:06;;;;;;;4.28;3.70;;;21.50;99.90;;;;;;4989262;28;20031;-83
2023/08/22 07:01:32;;;;;;;6.95;4.65;;;21.60;99.90;;;;;;4973133;28;20475;-82
2023/08/22 07:03:57;;;;;;;5.30;4.15;;;21.60;99.90;;;;;;4988966;28;20051;-82
2023/08/22 07:06:23;;;;;;;6.75;4.32;;;21.70;99.90;;;;;;4973578;28;20057;-83
2023/08/22 07:08:50;;;;;;;6.88;3.90;;;21.80;99.90;;;;;;4974400;28;20482;-82
2023/08/22 07:11:16;;;;;;;3.78;2.88;;;21.80;99.90;;;;;;4973152;28;20078;-82
2023/08/22 07:13:42;;;;;;;6.43;3.33;;;21.90;99.90;;;;;;4972994;28;20030;-82
2023/08/22 07:16:08;;;;;;;3.85;3.20;;;21.90;99.90;;;;;;4989474;28;20081;-82
2023/08/22 07:18:33;;;;;;;4.53;2.92;;;21.90;99.90;;;;;;4989162;28;20353;-82
2023/08/22 07:21:03;;;;;;;6.70;2.80;;;21.90;99.90;;;;;;4974524;28;20038;-82
2023/08/22 07:23:29;;;;;;;5.68;2.75;;;21.90;99.90;;;;;;4989218;28;20053;-82
2023/08/22 07:25:55;;;;;;;4.68;2.50;;;21.90;99.90;;;;;;4974295;28;20538;-82
2023/08/22 07:28:23;;;;;;;5.13;2.38;;;22.00;99.90;;;;;;4989252;28;20509;-83
2023/08/22 07:30:49;;;;;;;6.05;2.67;;;22.00;99.90;;;;;;4974099;28;20027;-82
2023/08/22 07:33:15;;;;;;;3.90;2.70;;;22.00;99.90;;;;;;4989026;28;20039;-82
2023/08/22 07:35:44;;;;;;;4.03;2.30;;;22.10;99.90;;;;;;4989178;28;20031;-83
2023/08/22 07:38:10;;;;;;;6.68;2.28;;;22.20;99.90;;;;;;4974246;28;20099;-82
2023/08/22 07:40:40;;;;;;;3.25;2.15;;;22.20;99.90;;;;;;4989136;28;20396;-83
2023/08/22 07:43:06;;;;;;;4.75;2.53;;;22.30;99.90;;;;;;4989040;28;20035;-83
2023/08/22 07:45:31;;;;;;;4.07;2.38;;;22.40;99.90;;;;;;4974134;28;20031;-82
2023/08/22 07:47:57;;;;;;;7.18;2.10;;;22.40;99.90;;;;;;4972708;28;20455;-82
2023/08/22 07:50:23;;;;;;;3.47;1.70;;;22.40;99.90;;;;;;4991098;28;20035;-83
2023/08/22 07:52:48;;;;;;;4.32;1.92;;;22.50;99.90;;;;;;4992317;28;20509;-83
2023/08/22 07:55:14;;;;;;;4.10;1.98;;;22.50;99.90;;;;;;4977572;28;20038;-83
2023/08/22 07:57:40;;;;;;;2.50;1.73;;;22.60;99.90;;;;;;4977269;28;20030;-82
2023/08/22 08:00:11;;;;;;;2.05;1.38;;;22.60;99.90;;;;;;4977981;28;20035;-82
2023/08/22 08:02:37;;;;;;;3.42;1.67;;;22.70;99.90;;;;;;4976705;28;20055;-83
2023/08/22 08:05:03;;;;;;;2.78;1.35;;;22.70;99.90;;;;;;4992571;28;20034;-83
2023/08/22 08:07:29;;;;;;;2.40;1.33;;;22.70;99.90;;;;;;4992355;28;20073;-83
2023/08/22 08:09:54;;;;;;;3.05;1.50;;;22.80;99.80;;;;;;4977409;28;20055;-83
2023/08/22 08:12:23;;;;;;;2.95;1.45;;;22.80;99.80;;;;;;4977306;28;20434;-83
2023/08/22 08:14:48;;;;;;;4.35;1.30;;;22.90;99.70;;;;;;4977675;28;20062;-83
2023/08/22 08:17:17;;;;;;;2.17;1.30;;;23.00;99.60;;;;;;4997399;28;20037;-83
2023/08/22 08:19:43;;;;;;;1.58;1.00;;;23.00;99.40;;;;;;5016843;28;20039;-82
2023/08/22 08:22:08;;;;;;;1.65;0.98;;;23.00;99.20;;;;;;5000473;28;20031;-83
2023/08/22 08:24:34;;;;;;;2.00;1.02;;;23.10;99.10;;;;;;5016158;28;20079;-82
2023/08/22 08:27:00;;;;;;;2.17;1.10;;;23.10;99.10;;;;;;5016565;28;20072;-82
2023/08/22 08:29:26;;;;;;;2.78;1.20;;;23.10;98.90;;;;;;5000985;28;20054;-83
2023/08/22 08:31:54;;;;;;;2.05;1.23;;;23.20;98.80;;;;;;4980892;28;20074;-83
2023/08/22 08:34:19;;;;;;;2.00;1.10;;;23.20;98.70;;;;;;4992222;28;20070;-83
2023/08/22 08:36:45;;;;;;;2.60;1.10;;;23.20;98.60;;;;;;4992029;28;20026;-83
2023/08/22 08:39:11;;;;;;;2.80;1.27;;;23.30;98.70;;;;;;4977159;28;20386;-83
2023/08/22 08:41:43;;;;;;;2.30;1.27;;;23.30;98.70;;;;;;4991715;28;20034;-83
2023/08/22 08:44:10;;;;;;;1.40;1.25;;;23.30;98.70;;;;;;4976866;28;20395;-83
2023/08/22 08:46:36;;;;;;;4.22;1.67;;;23.40;98.60;;;;;;4991695;28;20038;-82
2023/08/22 08:49:04;;;;;;;1.60;1.42;;;23.40;98.50;;;;;;4976330;28;20026;-82
2023/08/22 08:51:30;;;;;;;4.40;1.60;;;23.40;98.50;;;;;;4991384;28;20493;-82
2023/08/22 08:53:56;;;;;;;2.10;1.60;;;23.40;98.60;;;;;;4991296;28;20023;-82
2023/08/22 08:56:22;;;;;;;3.53;2.05;;;23.50;98.60;;;;;;4991451;28;20038;-82
2023/08/22 08:58:47;;;;;;;4.63;2.03;;;23.50;98.50;;;;;;4991311;28;20490;-82
2023/08/22 09:01:14;;;;;;;3.15;2.03;;;23.50;98.30;;;;;;4990503;28;20035;-82
2023/08/22 09:03:39;;;;;;;3.67;2.25;;;23.50;98.10;;;;;;4990595;28;20495;-82
2023/08/22 09:06:05;;;;;;;5.30;2.00;;;23.50;98.10;;;;;;4991374;28;20041;-82
2023/08/22 09:08:31;;;;;;;3.67;1.90;;;23.50;98.00;;;;;;4990964;28;20114;-82
2023/08/22 09:10:56;;;;;;;5.03;2.08;;;23.50;98.00;;;;;;4990930;28;20027;-82
2023/08/22 09:13:27;;;;;;;2.70;1.52;;;23.60;98.00;;;;;;4991083;28;20031;-82
2023/08/22 09:16:02;;;;;;;3.20;1.92;;;23.60;97.90;;;;;;4990954;28;20379;-83
2023/08/22 09:18:29;;;;;;;4.10;1.90;;;23.60;97.80;;;;;;4990485;28;20102;-82
2023/08/22 09:21:04;;;;;;;3.10;1.73;;;23.60;97.70;;;;;;4974228;28;20034;-82
2023/08/22 09:23:31;;;;;;;4.72;1.70;;;23.70;97.60;;;;;;4990341;28;20039;-82
2023/08/22 09:25:57;;;;;;;5.47;1.60;;;23.70;97.60;;;;;;4974678;28;20054;-82
2023/08/22 09:28:23;;;;;;;3.05;1.80;;;23.70;97.50;;;;;;4975493;28;20058;-83
2023/08/22 09:30:53;;;;;;;4.20;1.85;;;23.80;97.50;;;;;;4975659;28;20066;-83
2023/08/22 09:33:19;;;;;;;2.47;1.40;;;23.80;97.50;;;;;;4991005;28;20042;-83
2023/08/22 09:35:46;;;;;;;2.90;1.60;;;23.90;97.40;;;;;;4990514;28;20027;-82
2023/08/22 09:38:12;;;;;;;2.30;1.52;;;23.90;97.40;;;;;;4974434;28;20085;-82
2023/08/22 09:40:52;;;;;;;4.05;1.67;;;24.00;97.30;;;;;;4974288;28;20027;-82
2023/08/22 09:43:19;;;;;;;2.97;1.53;;;24.00;97.20;;;;;;4990799;28;20062;-82
2023/08/22 09:45:45;;;;;;;3.78;1.52;;;24.10;97.20;;;;;;4974281;28;20270;-82
2023/08/22 09:48:21;;;;;;;2.85;1.70;;;24.10;97.00;;;;;;4975793;28;20027;-82
2023/08/22 09:50:51;;;;;;;4.20;1.60;;;24.10;96.80;;;;;;4974266;28;20073;-82
2023/08/22 09:53:19;;;;;;;2.90;1.70;;;24.20;96.80;;;;;;4975525;28;20062;-83
2023/08/22 09:55:45;;;;;;;3.60;1.40;;;24.20;96.70;;;;;;4975455;28;20057;-82
2023/08/22 09:58:12;;;;;;;4.10;1.88;;;24.20;96.70;;;;;;4990329;28;20118;-82
2023/08/22 10:00:38;;;;;;;3.53;1.73;;;24.20;96.50;;;;;;4975952;28;20026;-83
2023/08/22 10:03:05;;;;;;;4.70;2.33;;;24.30;96.50;;;;;;4974867;28;20526;-82
2023/08/22 10:05:32;;;;;;;4.25;2.15;;;24.30;96.30;;;;;;4989974;28;20054;-83
2023/08/22 10:07:58;;;;;;;4.18;2.25;;;24.30;96.20;;;;;;4973795;28;20095;-82
2023/08/22 10:10:24;;;;;;;4.18;2.30;;;24.20;96.20;;;;;;4990182;28;20034;-83
2023/08/22 10:12:51;;;;;;;5.70;2.70;;;24.20;96.10;;;;;;4989109;28;20052;-83
2023/08/22 10:15:17;;;;;;;5.18;2.65;;;24.20;96.10;;;;;;4990325;28;20027;-82
2023/08/22 10:17:44;;;;;;;6.25;2.30;;;24.20;96.10;;;;;;4974128;28;20178;-83
2023/08/22 10:20:12;;;;;;;4.35;2.33;;;24.20;96.10;;;;;;4990672;28;20066;-83
2023/08/22 10:22:38;;;;;;;3.47;1.90;;;24.20;96.00;;;;;;5013324;28;20022;-82
2023/08/22 10:25:05;;;;;;;4.15;2.05;;;24.20;96.00;;;;;;5014581;28;20053;-82
2023/08/22 10:27:32;;;;;;;3.95;1.85;;;24.20;96.30;;;;;;4998263;28;20015;-82
2023/08/22 10:30:14;;;;;;;3.53;2.10;;;24.40;96.40;;;;;;4998006;28;20026;-83
2023/08/22 10:32:40;;;;;;;3.20;1.73;;;24.50;96.50;;;;;;5003178;28;20474;-82
2023/08/22 10:35:06;;;;;;;3.63;1.95;;;24.50;96.30;;;;;;4975572;28;20042;-83
2023/08/22 10:37:53;;;;;;;3.92;1.80;;;24.60;96.10;;;;;;4989846;28;20029;-83
2023/08/22 10:40:27;;;;;;;3.08;1.50;;;24.70;96.00;;;;;;4973396;28;20023;-82
2023/08/22 10:43:03;;;;;;;2.45;1.25;;;24.70;95.70;;;;;;4974386;28;20475;-82
2023/08/22 10:45:46;;;;;;;3.35;1.38;;;24.70;95.30;;;;;;4974827;28;20033;-83
2023/08/22 10:48:13;;;;;;;3.53;1.17;;;24.80;94.90;;;;;;4973701;28;20027;-82
2023/08/22 10:50:44;;;;;;;2.53;1.10;;;24.80;94.90;;;;;;4989698;28;20027;-82
2023/08/22 10:53:27;;;;;;;1.35;1.08;;;24.80;94.80;;;;;;4974571;28;20039;-82
2023/08/22 10:55:54;;;;;;;2.20;1.33;;;24.90;94.70;;;;;;4973261;28;20027;-82
2023/08/22 10:58:37;;;;;;;2.50;1.15;;;24.90;94.50;;;;;;4989301;28;20039;-82
2023/08/22 11:01:12;;;;;;;2.40;1.20;;;24.90;94.30;;;;;;4989384;28;20027;-82
2023/08/22 11:03:38;;;;;;;2.55;1.10;;;24.90;94.30;;;;;;4972855;28;20054;-83
2023/08/22 11:06:16;;;;;;;2.28;0.98;;;24.90;94.30;;;;;;4989236;28;20122;-82
2023/08/22 11:08:43;;;;;;;1.88;0.80;;;25.00;94.30;;;;;;4989699;28;20121;-82
2023/08/22 11:11:19;;;;;;;1.75;0.90;;;25.00;93.90;;;;;;4972785;28;20094;-83
2023/08/22 11:13:45;;;;;;;1.88;0.68;;;25.10;93.90;;;;;;4989201;28;20054;-83
2023/08/22 11:16:13;;;;;;;1.48;0.70;;;25.00;93.80;;;;;;4974410;28;20270;-83
2023/08/22 11:18:40;;;;;;;2.72;0.90;;;25.10;93.70;;;;;;4973158;28;20102;-83
2023/08/22 11:21:06;;;;;;;1.73;0.77;;;25.10;93.60;;;;;;4972786;28;20399;-83
2023/08/22 11:23:33;;;;;;;2.42;0.75;;;25.10;93.50;;;;;;4974065;28;20039;-82
2023/08/22 11:26:02;;;;;;;3.25;0.80;;;25.20;93.50;;;;;;4975166;28;20097;-82
2023/08/22 11:28:34;;;;;;;1.38;0.68;;;25.20;93.40;;;;;;4976719;28;20023;-83
2023/08/22 11:31:00;;;;;;;0.80;0.52;;;25.20;93.40;;;;;;4977876;28;20419;-82
2023/08/22 11:33:53;;;;;;;0.77;0.60;;;25.30;93.30;;;;;;4992791;28;20035;-83
2023/08/22 11:36:20;;;;;;;1.30;0.50;;;25.30;93.20;;;;;;4976486;28;20035;-83
2023/08/22 11:38:48;;;;;;;1.13;0.43;;;25.30;92.80;;;;;;4977867;28;20023;-82
2023/08/22 11:41:13;;;;;;;1.02;0.50;;;25.30;92.30;;;;;;4976453;28;20138;-82
2023/08/22 11:43:58;;;;;;;2.10;0.60;;;25.30;92.20;;;;;;4992430;28;20114;-82
2023/08/22 11:46:24;;;;;;;1.42;0.65;;;25.30;92.00;;;;;;4977656;28;20506;-83
2023/08/22 11:48:51;;;;;;;1.25;0.50;;;25.30;91.90;;;;;;4976248;28;20027;-82
2023/08/22 11:51:19;;;;;;;0.90;0.40;;;25.30;91.90;;;;;;4977559;28;20107;-83
2023/08/22 11:53:46;;;;;;;2.03;0.50;;;25.30;91.90;;;;;;4976150;28;20038;-83
2023/08/22 11:56:12;;;;;;;1.08;0.63;;;25.30;91.90;;;;;;4976078;28;20061;-83
2023/08/22 11:58:52;;;;;;;0.82;0.43;;;25.40;91.70;;;;;;4976372;28;20366;-83
2023/08/22 12:01:20;;;;;;;0.90;0.52;;;25.30;91.70;;;;;;4992304;28;20567;-83
2023/08/22 12:03:47;;;;;;;0.90;0.60;;;25.30;91.60;;;;;;4992326;28;20038;-82
2023/08/22 12:06:13;;;;;;;2.75;0.77;;;25.30;91.60;;;;;;4976327;28;20034;-83
2023/08/22 12:08:39;;;;;;;1.27;0.60;;;25.30;91.40;;;;;;4976095;28;20130;-83
2023/08/22 12:11:06;;;;;;;1.25;0.60;;;25.30;91.40;;;;;;4992772;28;20117;-83
2023/08/22 12:13:31;;;;;;;1.90;0.80;;;25.30;91.50;;;;;;4976109;28;20054;-83
2023/08/22 12:15:57;;;;;;;1.65;0.77;;;25.30;91.50;;;;;;4992465;28;20031;-83
2023/08/22 12:18:32;;;;;;;1.70;0.80;;;25.40;91.60;;;;;;4976382;28;20065;-82
2023/08/22 12:21:02;;;;;;;1.90;1.10;;;25.50;91.80;;;;;;4995406;28;20035;-82
2023/08/22 12:23:27;;;;;;;2.65;1.27;;;25.50;91.90;;;;;;4980562;28;20027;-82
2023/08/22 12:25:53;;;;;;;2.10;1.25;;;25.50;91.90;;;;;;4982107;28;20046;-82
2023/08/22 12:28:19;;;;;;;2.55;1.30;;;25.50;92.00;;;;;;5015396;28;20030;-82
2023/08/22 12:30:47;;;;;;;1.83;1.08;;;25.50;92.00;;;;;;5016670;28;20035;-83
2023/08/22 12:33:13;;;;;;;3.70;1.70;;;25.60;91.90;;;;;;5001007;28;20003;-82
2023/08/22 12:35:39;;;;;;;3.22;1.60;;;25.60;91.90;;;;;;5000585;28;20045;-83
2023/08/22 12:38:06;;;;;;;5.78;1.63;;;25.60;92.10;;;;;;5016388;28;20034;-83
2023/08/22 12:40:31;;;;;;;2.22;1.15;;;25.60;92.20;;;;;;5000987;28;20034;-83
2023/08/22 12:42:59;;;;;;;3.13;1.52;;;25.60;92.20;;;;;;4997284;28;20038;-83
2023/08/22 12:45:24;;;;;;;2.25;1.10;;;25.50;91.80;;;;;;4995633;28;20081;-83